Time;durP1;ratioP1;P1;durP2;ratioP2;P2;SDS_P1;SDS_P2;PMS_P1;PMS_P2;Temp;Humidity;BMP_temperature;BMP_pressure;BME280_temperature;BME280_humidity;BME280_pressure;Samples;Min_cycle;Max_cycle;Signal;HPM_P1;HPM_P2
2021/09/26 00:00:11;;;;;;;8.48;6.13;;;17.00;99.20;;;;;;4974797;28;20429;-71
2021/09/26 00:02:37;;;;;;;9.77;5.90;;;17.00;99.20;;;;;;4974859;28;20035;-71
2021/09/26 00:05:03;;;;;;;9.57;6.05;;;17.00;99.20;;;;;;4974659;28;20430;-71
2021/09/26 00:07:28;;;;;;;11.30;6.38;;;17.00;99.20;;;;;;4974353;28;20042;-71
2021/09/26 00:09:54;;;;;;;9.93;6.03;;;17.00;99.20;;;;;;4974617;28;20038;-70
2021/09/26 00:12:19;;;;;;;9.43;5.80;;;17.00;99.10;;;;;;4974530;28;20106;-71
2021/09/26 00:14:45;;;;;;;8.57;5.60;;;17.00;99.30;;;;;;4974420;28;20073;-72
2021/09/26 00:17:11;;;;;;;7.25;5.32;;;16.90;99.30;;;;;;4974676;28;20055;-72
2021/09/26 00:19:36;;;;;;;12.05;5.63;;;16.90;99.40;;;;;;4974437;28;20619;-72
2021/09/26 00:22:03;;;;;;;10.70;5.13;;;16.90;99.40;;;;;;4974334;28;20045;-72
2021/09/26 00:24:28;;;;;;;6.63;5.57;;;16.90;99.50;;;;;;4975096;28;20030;-72
2021/09/26 00:26:54;;;;;;;10.20;5.95;;;16.90;99.40;;;;;;4974326;28;20030;-74
2021/09/26 00:29:19;;;;;;;8.60;5.93;;;16.80;99.40;;;;;;4974567;28;20035;-72
2021/09/26 00:31:45;;;;;;;7.57;5.53;;;16.80;99.40;;;;;;4974538;28;20116;-72
2021/09/26 00:34:10;;;;;;;7.53;5.55;;;16.80;99.40;;;;;;4974694;28;20436;-73
2021/09/26 00:36:36;;;;;;;7.88;5.18;;;16.70;99.40;;;;;;4974705;28;20039;-72
2021/09/26 00:39:02;;;;;;;8.48;5.35;;;16.70;99.40;;;;;;4974117;28;20027;-72
2021/09/26 00:41:28;;;;;;;8.60;5.47;;;16.70;99.40;;;;;;4973887;28;20082;-72
2021/09/26 00:43:53;;;;;;;12.10;5.95;;;16.60;99.40;;;;;;4973546;28;20031;-72
2021/09/26 00:46:19;;;;;;;9.57;5.38;;;16.70;99.20;;;;;;4974019;28;20109;-72
2021/09/26 00:48:44;;;;;;;9.00;5.32;;;16.60;99.40;;;;;;4974577;28;20137;-72
2021/09/26 00:51:11;;;;;;;9.18;5.15;;;16.60;99.40;;;;;;4973881;28;20376;-72
2021/09/26 00:53:42;;;;;;;8.02;5.10;;;16.60;99.50;;;;;;4973881;28;20051;-71
2021/09/26 00:56:08;;;;;;;9.65;5.28;;;16.50;99.50;;;;;;4973707;28;20042;-72
2021/09/26 00:58:34;;;;;;;11.65;5.53;;;16.50;99.60;;;;;;4973758;28;20055;-72
2021/09/26 01:01:00;;;;;;;7.95;5.38;;;16.50;99.70;;;;;;4974075;28;20468;-72
2021/09/26 01:03:26;;;;;;;6.82;4.80;;;16.50;99.50;;;;;;4973130;28;20046;-72
2021/09/26 01:06:05;;;;;;;6.68;4.63;;;16.50;99.70;;;;;;4973827;28;20031;-72
2021/09/26 01:09:15;;;;;;;9.93;4.63;;;16.40;99.70;;;;;;4973764;28;20047;-72
2021/09/26 01:12:08;;;;;;;10.63;5.20;;;16.40;99.80;;;;;;4951934;28;20104;-72
2021/09/26 01:15:00;;;;;;;10.05;5.15;;;16.30;99.70;;;;;;4951997;29;20438;-71
2021/09/26 01:17:40;;;;;;;9.00;5.25;;;16.30;99.60;;;;;;4967080;28;20405;-71
2021/09/26 01:20:31;;;;;;;8.63;5.75;;;16.30;99.70;;;;;;4973343;28;20034;-71
2021/09/26 01:23:05;;;;;;;11.15;6.00;;;16.30;99.60;;;;;;4973354;28;20043;-72
2021/09/26 01:25:52;;;;;;;8.38;5.60;;;16.30;99.50;;;;;;4973362;28;20536;-71
2021/09/26 01:28:51;;;;;;;8.48;5.20;;;16.30;99.70;;;;;;4973142;28;20452;-72
2021/09/26 01:31:34;;;;;;;8.95;5.82;;;16.20;99.60;;;;;;4972079;28;20441;-72
2021/09/26 01:34:08;;;;;;;13.23;6.07;;;16.10;99.70;;;;;;4973587;28;20381;-72
2021/09/26 01:36:39;;;;;;;8.52;5.13;;;16.10;99.90;;;;;;4973093;28;20133;-72
2021/09/26 01:39:08;;;;;;;8.98;5.43;;;16.00;99.80;;;;;;4973118;28;20034;-72
2021/09/26 01:41:55;;;;;;;9.75;5.85;;;16.00;99.80;;;;;;4972799;28;20027;-71
2021/09/26 01:44:30;;;;;;;8.18;5.53;;;16.00;99.80;;;;;;4972977;28;20109;-72
2021/09/26 01:46:57;;;;;;;9.02;5.63;;;15.90;99.80;;;;;;4972870;28;20035;-71
2021/09/26 01:49:54;;;;;;;6.57;4.82;;;15.90;99.80;;;;;;4972881;28;20037;-72
2021/09/26 01:52:24;;;;;;;8.48;5.20;;;15.90;99.80;;;;;;4972504;28;20090;-72
2021/09/26 01:54:49;;;;;;;9.00;5.70;;;15.80;99.90;;;;;;4972500;28;20102;-72
2021/09/26 01:57:20;;;;;;;9.25;5.53;;;15.80;99.70;;;;;;4971366;28;20730;-72
2021/09/26 01:59:49;;;;;;;10.60;6.45;;;15.90;99.70;;;;;;4972595;28;20122;-72
2021/09/26 02:02:19;;;;;;;8.98;5.55;;;15.90;99.60;;;;;;4971548;28;20377;-71
2021/09/26 02:04:51;;;;;;;9.50;5.75;;;15.90;99.50;;;;;;4972579;28;20129;-72
2021/09/26 02:07:18;;;;;;;9.23;5.20;;;15.90;99.60;;;;;;4972374;28;20034;-72
2021/09/26 02:09:46;;;;;;;10.18;5.50;;;15.70;99.60;;;;;;4972767;28;20053;-72
2021/09/26 02:12:13;;;;;;;11.98;6.63;;;15.70;99.70;;;;;;4972501;28;20038;-72
2021/09/26 02:14:41;;;;;;;9.27;5.97;;;15.60;99.70;;;;;;4972398;28;20034;-73
2021/09/26 02:17:09;;;;;;;8.20;5.93;;;15.70;99.70;;;;;;4972447;28;20031;-73
2021/09/26 02:19:36;;;;;;;10.68;5.47;;;15.60;99.60;;;;;;4972439;28;20480;-72
2021/09/26 02:22:04;;;;;;;11.20;5.78;;;15.60;99.70;;;;;;4972475;28;20500;-72
2021/09/26 02:24:30;;;;;;;10.68;5.78;;;15.60;99.70;;;;;;4972848;28;20039;-72
2021/09/26 02:26:55;;;;;;;12.55;6.38;;;15.60;99.80;;;;;;4972386;28;20053;-72
2021/09/26 02:29:21;;;;;;;12.80;6.45;;;15.50;99.70;;;;;;4972180;28;20586;-72
2021/09/26 02:31:46;;;;;;;15.30;7.18;;;15.60;99.70;;;;;;4972204;28;20106;-73
2021/09/26 02:34:12;;;;;;;10.27;5.85;;;15.50;99.70;;;;;;4971300;28;20130;-72
2021/09/26 02:36:37;;;;;;;10.00;5.22;;;15.50;99.80;;;;;;4972564;28;20054;-73
2021/09/26 02:39:04;;;;;;;10.82;5.32;;;15.50;99.80;;;;;;4972274;28;20031;-73
2021/09/26 02:41:44;;;;;;;13.55;5.60;;;15.50;99.70;;;;;;4972216;28;20042;-71
2021/09/26 02:44:44;;;;;;;16.73;5.55;;;15.50;99.80;;;;;;4972264;28;20035;-71
2021/09/26 02:47:14;;;;;;;10.85;5.75;;;15.40;99.90;;;;;;4972506;28;20034;-71
2021/09/26 02:49:41;;;;;;;8.60;5.40;;;15.50;99.90;;;;;;4972193;28;20438;-73
2021/09/26 02:52:11;;;;;;;15.15;6.03;;;15.50;99.80;;;;;;4972089;28;20098;-70
2021/09/26 02:54:40;;;;;;;11.27;5.93;;;15.50;99.80;;;;;;4972247;28;20029;-72
2021/09/26 02:57:07;;;;;;;21.30;6.20;;;15.60;99.90;;;;;;4971930;28;20039;-72
2021/09/26 02:59:33;;;;;;;13.68;5.38;;;15.50;99.70;;;;;;4971940;28;20027;-72
2021/09/26 03:01:58;;;;;;;12.82;5.55;;;15.60;99.80;;;;;;4972394;28;20373;-72
2021/09/26 03:04:24;;;;;;;9.55;5.68;;;15.50;99.80;;;;;;4971911;28;20038;-73
2021/09/26 03:06:51;;;;;;;18.08;5.90;;;15.50;99.80;;;;;;4973449;28;20031;-73
2021/09/26 03:09:17;;;;;;;11.03;6.20;;;15.50;99.80;;;;;;4975360;28;20146;-72
2021/09/26 03:11:42;;;;;;;10.52;5.68;;;15.60;99.90;;;;;;4975749;28;20352;-72
2021/09/26 03:14:08;;;;;;;11.45;6.38;;;15.60;99.80;;;;;;4975621;28;20027;-73
2021/09/26 03:16:34;;;;;;;10.95;5.75;;;15.50;99.80;;;;;;4975673;28;20046;-72
2021/09/26 03:18:59;;;;;;;10.73;5.70;;;15.50;99.90;;;;;;4975939;28;20031;-72
2021/09/26 03:21:27;;;;;;;12.30;6.32;;;15.40;99.90;;;;;;4975518;28;20046;-71
2021/09/26 03:23:54;;;;;;;10.63;5.45;;;15.40;99.90;;;;;;4975434;28;20105;-71
2021/09/26 03:26:20;;;;;;;13.65;6.10;;;15.30;99.90;;;;;;4975401;28;20035;-73
2021/09/26 03:28:45;;;;;;;13.27;6.57;;;15.30;99.90;;;;;;4975545;28;20440;-72
2021/09/26 03:31:11;;;;;;;14.65;5.60;;;15.30;99.90;;;;;;4974322;28;20038;-73
2021/09/26 03:33:36;;;;;;;9.27;5.63;;;15.20;99.90;;;;;;4975794;28;20022;-72
2021/09/26 03:36:03;;;;;;;13.02;6.32;;;15.30;99.90;;;;;;4974256;28;20030;-72
2021/09/26 03:38:29;;;;;;;14.57;6.28;;;15.20;99.90;;;;;;4975368;28;20119;-73
2021/09/26 03:40:54;;;;;;;12.13;6.05;;;15.30;99.90;;;;;;4975327;28;20027;-71
2021/09/26 03:43:20;;;;;;;9.45;5.57;;;15.10;99.90;;;;;;4975705;28;20034;-73
2021/09/26 03:45:50;;;;;;;9.48;5.68;;;15.10;99.90;;;;;;4975322;28;20031;-73
2021/09/26 03:48:20;;;;;;;10.35;6.30;;;15.10;99.90;;;;;;4975063;28;20050;-73
2021/09/26 03:50:47;;;;;;;10.00;6.45;;;15.00;99.90;;;;;;4974862;28;20045;-73
2021/09/26 03:53:12;;;;;;;12.63;6.13;;;15.00;99.90;;;;;;4974929;28;20031;-73
2021/09/26 03:55:38;;;;;;;10.27;5.55;;;15.10;99.90;;;;;;4974834;28;20387;-73
2021/09/26 03:58:03;;;;;;;11.20;5.60;;;15.20;99.90;;;;;;4974826;28;20201;-72
2021/09/26 04:00:29;;;;;;;10.10;5.88;;;15.20;99.90;;;;;;4975223;28;20023;-71
2021/09/26 04:02:55;;;;;;;11.05;5.82;;;15.10;99.90;;;;;;4974783;28;20058;-71
2021/09/26 04:05:20;;;;;;;12.48;6.40;;;15.20;99.90;;;;;;4974859;28;20162;-71
2021/09/26 04:07:46;;;;;;;10.23;5.80;;;15.10;99.90;;;;;;4974563;28;20385;-72
2021/09/26 04:10:12;;;;;;;12.98;6.15;;;15.10;99.90;;;;;;4974405;28;20065;-72
2021/09/26 04:12:40;;;;;;;14.15;6.75;;;15.10;99.90;;;;;;4975646;28;20150;-71
2021/09/26 04:15:07;;;;;;;13.18;6.03;;;15.10;99.90;;;;;;4974687;28;20377;-72
2021/09/26 04:17:33;;;;;;;12.23;6.70;;;15.10;99.90;;;;;;4974393;28;20118;-73
2021/09/26 04:19:59;;;;;;;13.98;6.38;;;15.10;99.90;;;;;;4973821;28;20034;-71
2021/09/26 04:22:24;;;;;;;11.05;6.43;;;15.10;99.90;;;;;;4974545;28;20038;-72
2021/09/26 04:24:50;;;;;;;12.77;6.15;;;15.10;99.90;;;;;;4974754;28;20033;-72
2021/09/26 04:27:16;;;;;;;12.68;6.88;;;15.10;99.90;;;;;;4974347;28;20054;-71
2021/09/26 04:29:41;;;;;;;12.60;6.30;;;15.10;99.90;;;;;;4974518;28;20031;-72
2021/09/26 04:32:07;;;;;;;13.77;6.38;;;15.10;99.90;;;;;;4974709;28;20097;-73
2021/09/26 04:34:33;;;;;;;13.07;6.65;;;15.10;99.90;;;;;;4974337;28;20031;-73
2021/09/26 04:36:58;;;;;;;11.93;6.85;;;15.00;99.90;;;;;;4974550;28;20098;-72
2021/09/26 04:39:24;;;;;;;14.55;6.40;;;15.10;99.90;;;;;;4974143;28;20037;-73
2021/09/26 04:41:50;;;;;;;11.18;6.40;;;15.10;99.90;;;;;;4974153;28;20058;-73
2021/09/26 04:44:15;;;;;;;9.43;6.10;;;15.10;99.90;;;;;;4974348;28;20142;-71
2021/09/26 04:46:41;;;;;;;16.40;6.93;;;15.00;99.90;;;;;;4973991;28;20035;-71
2021/09/26 04:49:07;;;;;;;16.70;6.03;;;15.10;99.90;;;;;;4973935;28;20015;-70
2021/09/26 04:51:32;;;;;;;13.23;7.00;;;15.00;99.90;;;;;;4974379;28;20093;-71
2021/09/26 04:53:58;;;;;;;14.45;7.43;;;15.00;99.90;;;;;;4974008;28;20097;-72
2021/09/26 04:56:23;;;;;;;12.65;6.07;;;15.00;99.90;;;;;;4973810;28;20038;-71
2021/09/26 04:58:49;;;;;;;12.70;6.22;;;15.00;99.90;;;;;;4973854;28;20037;-72
2021/09/26 05:01:16;;;;;;;11.23;5.85;;;15.00;99.90;;;;;;4973744;28;20452;-73
2021/09/26 05:03:42;;;;;;;10.77;6.47;;;15.00;99.90;;;;;;4974045;28;20029;-73
2021/09/26 05:06:07;;;;;;;11.15;6.50;;;15.00;99.90;;;;;;4973573;28;20378;-73
2021/09/26 05:08:33;;;;;;;11.55;6.10;;;14.90;99.90;;;;;;4973278;28;20479;-72
2021/09/26 05:10:58;;;;;;;11.70;6.55;;;14.90;99.90;;;;;;4973373;28;20129;-73
2021/09/26 05:13:24;;;;;;;10.02;5.70;;;14.90;99.90;;;;;;4973530;28;20034;-73
2021/09/26 05:15:50;;;;;;;12.90;7.22;;;14.90;99.90;;;;;;4973826;28;20026;-72
2021/09/26 05:18:17;;;;;;;10.63;6.25;;;14.90;99.90;;;;;;4973540;28;20031;-72
2021/09/26 05:20:43;;;;;;;12.17;6.33;;;14.90;99.90;;;;;;4973407;28;20051;-73
2021/09/26 05:23:09;;;;;;;12.70;6.00;;;14.90;99.90;;;;;;4973497;28;20268;-72
2021/09/26 05:25:34;;;;;;;10.93;6.15;;;14.90;99.90;;;;;;4973281;28;20035;-74
2021/09/26 05:28:02;;;;;;;11.05;6.35;;;14.90;99.90;;;;;;4973683;28;20042;-72
2021/09/26 05:30:29;;;;;;;11.27;6.40;;;14.80;99.90;;;;;;4973016;28;20465;-72
2021/09/26 05:32:56;;;;;;;9.55;6.03;;;14.90;99.90;;;;;;4973400;28;20117;-72
2021/09/26 05:35:21;;;;;;;11.30;7.03;;;14.90;99.90;;;;;;4973534;28;20126;-73
2021/09/26 05:37:47;;;;;;;12.02;6.28;;;14.90;99.90;;;;;;4972995;28;20114;-72
2021/09/26 05:40:13;;;;;;;10.77;6.53;;;14.90;99.90;;;;;;4973036;28;20629;-73
2021/09/26 05:42:39;;;;;;;12.23;5.85;;;14.90;99.90;;;;;;4973441;28;20022;-73
2021/09/26 05:45:05;;;;;;;12.18;6.18;;;14.90;99.90;;;;;;4973157;28;20544;-73
2021/09/26 05:47:30;;;;;;;11.02;6.20;;;14.90;99.90;;;;;;4972890;28;20114;-72
2021/09/26 05:49:56;;;;;;;7.55;5.55;;;14.90;99.90;;;;;;4972781;28;20062;-73
2021/09/26 05:52:21;;;;;;;13.57;6.55;;;14.90;99.90;;;;;;4972992;28;20054;-73
2021/09/26 05:54:47;;;;;;;10.95;6.00;;;15.00;99.90;;;;;;4973671;28;20506;-72
2021/09/26 05:57:13;;;;;;;8.40;5.72;;;15.00;99.90;;;;;;4992541;28;20038;-74
2021/09/26 05:59:38;;;;;;;9.60;6.40;;;15.00;99.90;;;;;;4992679;28;20453;-73
2021/09/26 06:02:10;;;;;;;10.45;6.38;;;15.10;99.90;;;;;;4992644;28;20100;-73
2021/09/26 06:04:36;;;;;;;10.50;6.10;;;15.10;99.90;;;;;;4992567;28;20081;-73
2021/09/26 06:07:02;;;;;;;7.22;5.47;;;15.10;99.90;;;;;;4992297;28;20469;-72
2021/09/26 06:09:27;;;;;;;9.20;5.80;;;15.20;99.90;;;;;;4992306;28;20080;-73
2021/09/26 06:11:53;;;;;;;11.02;6.50;;;15.30;99.90;;;;;;4990975;28;20046;-74
2021/09/26 06:14:19;;;;;;;10.27;5.47;;;15.40;99.90;;;;;;4992223;28;20097;-72
2021/09/26 06:16:44;;;;;;;9.10;6.40;;;15.50;99.90;;;;;;4992064;28;20045;-74
2021/09/26 06:19:10;;;;;;;13.38;6.15;;;15.50;99.90;;;;;;4992170;28;20026;-72
2021/09/26 06:21:36;;;;;;;9.73;6.13;;;15.60;99.90;;;;;;4991506;28;20353;-75
2021/09/26 06:24:01;;;;;;;10.30;6.13;;;15.70;99.90;;;;;;4991902;28;20046;-72
2021/09/26 06:26:27;;;;;;;11.70;6.65;;;15.70;99.90;;;;;;4992067;28;20038;-73
2021/09/26 06:28:53;;;;;;;8.13;5.78;;;15.70;99.90;;;;;;4992337;28;20039;-73
2021/09/26 06:31:19;;;;;;;13.00;6.22;;;15.70;99.90;;;;;;4992223;28;20030;-72
2021/09/26 06:33:45;;;;;;;10.35;7.15;;;15.70;99.90;;;;;;4991655;28;20046;-75
2021/09/26 06:36:10;;;;;;;12.07;6.47;;;15.80;99.90;;;;;;4991086;28;20166;-73
2021/09/26 06:38:36;;;;;;;9.30;6.22;;;15.80;99.90;;;;;;4992110;28;20134;-72
2021/09/26 06:41:02;;;;;;;11.27;6.18;;;15.90;99.90;;;;;;4991784;28;20054;-75
2021/09/26 06:43:27;;;;;;;7.60;5.07;;;15.80;99.90;;;;;;4995876;28;20113;-73
2021/09/26 06:45:53;;;;;;;9.73;6.18;;;15.90;99.90;;;;;;4996616;28;20026;-74
2021/09/26 06:48:18;;;;;;;10.98;5.95;;;15.90;99.90;;;;;;4996066;28;20022;-73
2021/09/26 06:50:45;;;;;;;12.48;5.85;;;16.00;99.90;;;;;;4995872;28;20023;-74
2021/09/26 06:53:11;;;;;;;13.13;5.70;;;16.00;99.90;;;;;;4995975;28;20253;-72
2021/09/26 06:55:36;;;;;;;8.98;5.47;;;16.00;99.90;;;;;;4995853;28;20154;-75
2021/09/26 06:58:02;;;;;;;8.30;5.50;;;16.00;99.90;;;;;;4995730;28;20018;-72
2021/09/26 07:00:28;;;;;;;11.13;5.60;;;16.10;99.90;;;;;;4996189;28;20022;-75
2021/09/26 07:02:53;;;;;;;7.15;5.22;;;16.10;99.90;;;;;;4996020;28;20045;-72
2021/09/26 07:05:19;;;;;;;13.23;6.22;;;16.10;99.90;;;;;;4995618;28;20053;-72
2021/09/26 07:07:46;;;;;;;6.68;4.88;;;16.20;99.90;;;;;;4995559;28;20481;-73
2021/09/26 07:10:12;;;;;;;9.65;6.25;;;16.30;99.90;;;;;;4994814;28;20046;-73
2021/09/26 07:12:38;;;;;;;9.73;5.18;;;16.30;99.90;;;;;;4994863;28;20074;-76
2021/09/26 07:15:04;;;;;;;9.43;5.43;;;16.40;99.90;;;;;;4995137;28;20396;-73
2021/09/26 07:17:31;;;;;;;6.82;4.55;;;16.40;99.90;;;;;;4995139;28;20108;-73
2021/09/26 07:19:56;;;;;;;20.75;10.52;;;16.60;99.90;;;;;;4995216;28;20049;-73
2021/09/26 07:22:25;;;;;;;10.82;7.03;;;16.60;99.90;;;;;;4995182;28;20038;-73
2021/09/26 07:24:52;;;;;;;9.02;6.25;;;16.70;99.90;;;;;;4994074;28;20093;-73
2021/09/26 07:27:21;;;;;;;10.88;4.93;;;16.80;99.90;;;;;;4993979;28;20036;-72
2021/09/26 07:29:47;;;;;;;12.43;7.55;;;16.90;99.90;;;;;;4994744;28;20385;-70
2021/09/26 07:32:14;;;;;;;11.40;7.72;;;16.90;99.90;;;;;;4994693;28;20034;-72
2021/09/26 07:34:43;;;;;;;8.50;5.90;;;16.90;99.90;;;;;;4994739;28;20154;-74
2021/09/26 07:37:08;;;;;;;8.70;4.50;;;17.00;99.90;;;;;;4994749;28;20049;-74
2021/09/26 07:39:36;;;;;;;8.73;6.13;;;17.00;99.90;;;;;;4995396;28;20022;-73
2021/09/26 07:42:02;;;;;;;12.60;6.68;;;17.00;99.90;;;;;;4994730;28;20081;-73
2021/09/26 07:44:28;;;;;;;7.07;4.72;;;17.10;99.90;;;;;;4994358;28;20034;-73
2021/09/26 07:46:53;;;;;;;9.60;4.18;;;17.10;99.90;;;;;;4994489;28;20037;-74
2021/09/26 07:49:19;;;;;;;5.65;4.10;;;17.20;99.90;;;;;;4994598;28;20026;-72
2021/09/26 07:51:45;;;;;;;7.00;3.80;;;17.30;99.90;;;;;;4994808;28;20030;-72
2021/09/26 07:54:15;;;;;;;8.02;3.80;;;17.40;99.90;;;;;;4994298;28;20042;-72
2021/09/26 07:56:41;;;;;;;6.90;3.83;;;17.50;99.90;;;;;;4994221;28;20049;-72
2021/09/26 07:59:07;;;;;;;7.20;4.55;;;17.50;99.90;;;;;;4994206;28;20492;-72
2021/09/26 08:01:32;;;;;;;6.88;4.20;;;17.70;99.90;;;;;;4992943;28;20038;-72
2021/09/26 08:03:58;;;;;;;5.97;4.22;;;17.70;99.90;;;;;;4994373;28;20118;-72
2021/09/26 08:06:24;;;;;;;13.90;3.78;;;17.80;99.90;;;;;;4993188;28;20030;-71
2021/09/26 08:08:49;;;;;;;7.15;4.15;;;17.90;99.90;;;;;;4994002;28;20121;-72
2021/09/26 08:11:15;;;;;;;6.32;4.47;;;18.00;99.90;;;;;;4994065;28;20129;-73
2021/09/26 08:13:40;;;;;;;10.82;4.13;;;18.00;99.90;;;;;;4977883;28;20190;-71
2021/09/26 08:16:07;;;;;;;4.65;3.33;;;18.10;99.90;;;;;;4974802;28;20137;-73
2021/09/26 08:18:32;;;;;;;6.70;3.70;;;18.20;99.80;;;;;;4974884;28;20106;-73
2021/09/26 08:20:58;;;;;;;5.60;3.40;;;18.30;99.60;;;;;;4974412;28;20047;-72
2021/09/26 08:23:24;;;;;;;8.82;4.32;;;18.40;99.50;;;;;;4973400;28;20035;-72
2021/09/26 08:25:51;;;;;;;6.13;4.30;;;18.50;99.40;;;;;;4974322;28;20398;-73
2021/09/26 08:28:18;;;;;;;18.57;7.70;;;18.50;99.30;;;;;;4974184;28;20585;-72
2021/09/26 08:30:43;;;;;;;13.18;6.47;;;18.60;99.40;;;;;;4974472;28;20026;-72
2021/09/26 08:33:09;;;;;;;6.32;3.80;;;18.70;99.40;;;;;;4974107;28;20034;-72
2021/09/26 08:35:35;;;;;;;7.10;3.47;;;18.80;99.40;;;;;;4974140;28;20027;-71
2021/09/26 08:38:01;;;;;;;5.97;3.40;;;18.90;99.10;;;;;;4974102;28;20046;-73
2021/09/26 08:40:26;;;;;;;4.35;3.50;;;19.10;99.20;;;;;;4974026;28;20058;-73
2021/09/26 08:42:52;;;;;;;8.05;3.05;;;19.20;98.80;;;;;;4974380;28;20365;-72
2021/09/26 08:45:19;;;;;;;6.00;3.15;;;19.40;98.60;;;;;;4974002;28;20027;-72
2021/09/26 08:47:45;;;;;;;3.53;2.90;;;19.60;98.60;;;;;;4973750;28;20603;-72
2021/09/26 08:50:15;;;;;;;7.40;3.20;;;19.80;98.40;;;;;;4973812;28;20054;-71
2021/09/26 08:52:42;;;;;;;6.03;3.38;;;20.10;98.30;;;;;;4974154;28;20592;-72
2021/09/26 08:55:10;;;;;;;11.57;8.15;;;20.60;98.00;;;;;;4973771;28;20030;-72
2021/09/26 08:57:36;;;;;;;8.63;4.10;;;21.10;97.80;;;;;;4974209;28;20026;-72
2021/09/26 09:00:03;;;;;;;5.38;3.38;;;21.70;97.40;;;;;;4973620;28;20102;-72
2021/09/26 09:02:29;;;;;;;7.70;3.55;;;22.30;97.00;;;;;;4973565;28;20027;-70
2021/09/26 09:04:54;;;;;;;5.22;2.40;;;22.90;95.60;;;;;;4972008;28;20027;-71
2021/09/26 09:07:20;;;;;;;5.28;2.40;;;23.60;95.60;;;;;;4973292;28;20066;-71
2021/09/26 09:09:55;;;;;;;3.97;2.25;;;24.10;94.00;;;;;;4973619;28;20189;-71
2021/09/26 09:12:47;;;;;;;6.18;2.67;;;24.70;94.70;;;;;;4973421;28;20037;-71
2021/09/26 09:15:13;;;;;;;4.80;3.00;;;25.40;92.20;;;;;;4970657;28;20031;-71
2021/09/26 09:17:41;;;;;;;5.30;3.63;;;25.60;90.40;;;;;;4973298;28;20027;-70
2021/09/26 09:20:17;;;;;;;5.68;2.97;;;25.80;90.40;;;;;;4973284;28;20298;-70
2021/09/26 09:22:46;;;;;;;4.45;2.60;;;26.20;88.90;;;;;;4973158;28;20456;-72
2021/09/26 09:25:50;;;;;;;4.90;3.08;;;26.70;90.00;;;;;;4973263;28;20038;-71
2021/09/26 09:28:22;;;;;;;6.90;4.80;;;27.30;88.60;;;;;;4973154;28;20019;-71
2021/09/26 09:30:51;;;;;;;5.20;3.55;;;27.70;86.00;;;;;;4972432;28;20033;-71
2021/09/26 09:33:18;;;;;;;5.05;2.80;;;28.10;83.80;;;;;;4973026;28;20050;-72
2021/09/26 09:35:48;;;;;;;7.10;2.57;;;28.60;83.40;;;;;;4971889;28;20023;-71
2021/09/26 09:38:33;;;;;;;4.32;3.00;;;28.90;79.70;;;;;;4972961;28;20035;-72
2021/09/26 09:40:59;;;;;;;4.97;3.10;;;29.40;77.40;;;;;;4972825;28;20034;-71
2021/09/26 09:43:27;;;;;;;3.15;2.83;;;30.00;76.50;;;;;;4973021;28;20134;-71
2021/09/26 09:46:02;;;;;;;4.25;2.90;;;30.50;73.30;;;;;;4973476;28;20026;-71
2021/09/26 09:48:31;;;;;;;3.50;2.92;;;31.00;72.40;;;;;;4972876;28;20130;-72
2021/09/26 09:51:02;;;;;;;3.80;2.60;;;31.20;69.90;;;;;;4972598;28;20130;-71
2021/09/26 09:53:36;;;;;;;5.70;3.30;;;31.40;67.80;;;;;;4972604;28;20091;-71
2021/09/26 09:56:06;;;;;;;5.05;2.60;;;31.90;67.80;;;;;;4972636;28;20054;-71
2021/09/26 09:58:35;;;;;;;10.02;2.90;;;32.30;66.20;;;;;;4972742;28;20039;-69
2021/09/26 10:01:02;;;;;;;6.32;3.20;;;32.70;67.00;;;;;;4972269;28;20034;-70
2021/09/26 10:03:52;;;;;;;3.50;2.92;;;32.70;64.50;;;;;;4973345;28;20035;-70
2021/09/26 10:06:27;;;;;;;4.03;3.60;;;32.90;62.70;;;;;;4972288;28;20418;-70
2021/09/26 10:08:56;;;;;;;5.00;3.17;;;32.70;63.00;;;;;;4972242;28;20038;-70
2021/09/26 10:11:22;;;;;;;3.95;2.78;;;32.80;61.30;;;;;;4972317;28;20109;-70
2021/09/26 10:13:47;;;;;;;4.82;2.97;;;33.10;61.30;;;;;;4972334;28;20031;-71
2021/09/26 10:16:14;;;;;;;6.25;3.55;;;33.00;59.60;;;;;;4971746;28;20031;-69
2021/09/26 10:18:43;;;;;;;4.20;3.15;;;33.20;60.10;;;;;;4972648;28;20038;-70
2021/09/26 10:21:11;;;;;;;6.70;3.50;;;33.60;59.80;;;;;;4972295;28;20481;-70
2021/09/26 10:23:39;;;;;;;5.55;3.45;;;33.70;59.20;;;;;;4972246;28;20425;-69
2021/09/26 10:26:06;;;;;;;5.38;3.05;;;33.60;58.60;;;;;;4972345;28;20035;-70
2021/09/26 10:28:33;;;;;;;4.20;2.95;;;33.40;59.30;;;;;;4972355;28;20062;-70
2021/09/26 10:31:04;;;;;;;5.93;3.47;;;33.10;58.60;;;;;;4972238;28;20362;-70
2021/09/26 10:33:31;;;;;;;7.00;3.30;;;33.50;59.60;;;;;;4972096;28;20038;-70
2021/09/26 10:35:58;;;;;;;6.20;3.13;;;34.00;57.30;;;;;;4972198;28;20382;-70
2021/09/26 10:38:24;;;;;;;;;;;34.60;57.30;;;;;;4972457;28;20031;-71
2021/09/26 10:40:51;;;;;;;5.82;3.50;;;34.50;56.10;;;;;;4965726;28;19997;-70
2021/09/26 10:43:30;;;;;;;4.80;3.53;;;34.40;56.70;;;;;;4954954;28;20019;-70
2021/09/26 10:46:25;;;;;;;4.88;3.33;;;34.50;55.40;;;;;;4972274;28;20105;-70
2021/09/26 10:48:56;;;;;;;7.57;3.42;;;34.30;55.60;;;;;;4972060;28;20126;-71
2021/09/26 10:51:53;;;;;;;4.57;3.20;;;34.70;55.40;;;;;;4971930;28;20063;-71
2021/09/26 10:54:21;;;;;;;11.48;3.85;;;34.90;55.30;;;;;;4971796;28;20031;-71
2021/09/26 10:56:48;;;;;;;4.75;3.42;;;35.20;54.50;;;;;;4971965;28;20035;-71
2021/09/26 10:59:14;;;;;;;4.75;2.92;;;35.10;53.80;;;;;;4971890;28;20033;-71
2021/09/26 11:01:39;;;;;;;5.00;3.20;;;35.40;56.30;;;;;;4971978;28;20035;-71
2021/09/26 11:04:05;;;;;;;7.85;4.55;;;34.50;53.50;;;;;;4971937;28;20537;-70
2021/09/26 11:06:31;;;;;;;5.65;4.47;;;34.50;54.10;;;;;;4972380;28;20078;-70
2021/09/26 11:09:01;;;;;;;3.67;2.97;;;34.30;54.90;;;;;;4971649;28;20465;-71
2021/09/26 11:11:35;;;;;;;3.92;3.15;;;33.80;55.10;;;;;;4971600;28;20043;-71
2021/09/26 11:14:02;;;;;;;5.28;3.65;;;33.40;55.50;;;;;;4971516;28;20469;-70
2021/09/26 11:16:57;;;;;;;8.57;3.80;;;32.60;56.20;;;;;;4971832;28;20119;-70
2021/09/26 11:19:24;;;;;;;6.20;2.92;;;32.80;57.70;;;;;;4970525;28;20066;-70
2021/09/26 11:21:56;;;;;;;4.47;3.00;;;33.60;56.80;;;;;;4972058;28;20031;-69
2021/09/26 11:24:21;;;;;;;8.73;3.28;;;34.20;57.00;;;;;;4971636;28;20544;-70
2021/09/26 11:26:56;;;;;;;7.45;3.70;;;33.60;54.70;;;;;;4970200;28;20027;-70
2021/09/26 11:29:22;;;;;;;4.65;3.05;;;33.50;55.70;;;;;;4974795;28;20503;-69
2021/09/26 11:31:48;;;;;;;6.95;3.50;;;34.10;55.10;;;;;;4975133;28;20045;-70
2021/09/26 11:34:37;;;;;;;6.05;3.30;;;34.10;55.20;;;;;;4974170;28;20023;-69
2021/09/26 11:37:04;;;;;;;6.38;3.67;;;33.70;54.60;;;;;;4975011;28;20026;-69
2021/09/26 11:39:30;;;;;;;4.57;3.13;;;33.20;55.30;;;;;;4975464;28;20042;-70
2021/09/26 11:41:57;;;;;;;5.50;3.28;;;32.60;56.10;;;;;;4975201;28;20214;-70
2021/09/26 11:44:23;;;;;;;5.72;3.40;;;31.90;57.50;;;;;;4975144;28;20034;-69
2021/09/26 11:46:51;;;;;;;5.35;3.80;;;31.30;58.10;;;;;;4974884;28;20101;-70
2021/09/26 11:49:17;;;;;;;7.63;3.47;;;30.90;59.30;;;;;;4975108;28;20027;-69
2021/09/26 11:51:43;;;;;;;4.38;3.53;;;30.30;60.40;;;;;;4975231;28;20105;-70
2021/09/26 11:54:10;;;;;;;7.03;3.72;;;29.80;61.90;;;;;;4974792;28;20114;-70
2021/09/26 11:56:43;;;;;;;7.32;3.38;;;29.60;63.50;;;;;;4974880;28;20099;-70
2021/09/26 11:59:12;;;;;;;8.60;3.42;;;29.40;63.00;;;;;;4974645;28;20049;-70
2021/09/26 12:01:43;;;;;;;8.18;4.55;;;29.40;63.60;;;;;;4974403;28;20035;-69
2021/09/26 12:04:23;;;;;;;5.50;3.05;;;29.30;65.40;;;;;;4974790;28;20101;-70
2021/09/26 12:06:59;;;;;;;6.18;3.33;;;29.20;64.60;;;;;;4975048;28;20042;-70
2021/09/26 12:09:33;;;;;;;6.65;3.35;;;29.20;65.10;;;;;;4974611;28;20047;-70
2021/09/26 12:12:00;;;;;;;10.70;3.95;;;28.90;64.90;;;;;;4974596;28;20122;-70
2021/09/26 12:14:30;;;;;;;4.78;3.20;;;28.70;65.30;;;;;;4974556;28;20260;-70
2021/09/26 12:17:01;;;;;;;10.00;3.72;;;28.70;65.70;;;;;;4967273;28;20031;-70
2021/09/26 12:19:27;;;;;;;5.85;3.65;;;28.80;65.70;;;;;;4958701;28;20487;-70
2021/09/26 12:22:11;;;;;;;8.50;3.70;;;28.60;66.10;;;;;;4974881;28;20085;-70
2021/09/26 12:24:42;;;;;;;9.15;3.42;;;28.60;66.30;;;;;;4974405;28;20035;-70
2021/09/26 12:27:25;;;;;;;4.80;3.20;;;28.40;66.90;;;;;;4974329;28;20038;-70
2021/09/26 12:29:55;;;;;;;7.25;3.58;;;28.30;67.10;;;;;;4973832;28;20573;-70
2021/09/26 12:32:24;;;;;;;5.57;2.97;;;28.10;67.70;;;;;;4974137;28;20129;-70
2021/09/26 12:34:49;;;;;;;4.75;3.28;;;28.20;67.90;;;;;;4974269;28;20031;-69
2021/09/26 12:37:24;;;;;;;5.50;3.47;;;28.00;68.50;;;;;;4974129;28;20045;-70
2021/09/26 12:39:54;;;;;;;7.45;3.20;;;28.00;68.60;;;;;;4973532;28;20019;-69
2021/09/26 12:42:33;;;;;;;4.57;3.30;;;27.90;68.50;;;;;;4974158;28;20513;-70
2021/09/26 12:45:12;;;;;;;8.93;4.63;;;27.70;68.80;;;;;;4972826;28;20035;-70
2021/09/26 12:47:39;;;;;;;6.07;3.55;;;27.80;69.30;;;;;;4973676;28;20038;-70
2021/09/26 12:50:04;;;;;;;7.22;4.00;;;27.80;70.20;;;;;;4973753;28;20393;-69